Time;durP1;ratioP1;P1;durP2;ratioP2;P2;SDS_P1;SDS_P2;PMS_P1;PMS_P2;Temp;Humidity;BMP_temperature;BMP_pressure;BME280_temperature;BME280_humidity;BME280_pressure;Samples;Min_cycle;Max_cycle;Signal;HPM_P1;HPM_P2
2023/07/08 00:01:21;;;;;;;;;;;22.50;70.70;;;;;;5009651;28;92512;-45
2023/07/08 00:03:47;;;;;;;;;;;22.40;70.70;;;;;;5006870;28;94183;-45
2023/07/08 00:06:17;;;;;;;;;;;22.40;70.70;;;;;;5011015;28;92324;-46
2023/07/08 00:08:42;;;;;;;;;;;22.40;70.80;;;;;;5008718;28;94393;-46
2023/07/08 00:11:11;;;;;;;;;;;22.40;70.70;;;;;;5007345;28;92962;-48
2023/07/08 00:13:37;;;;;;;;;;;22.40;70.70;;;;;;5010779;28;93442;-45
2023/07/08 00:16:02;;;;;;;;;;;22.40;70.70;;;;;;5007611;28;93070;-45
2023/07/08 00:18:28;;;;;;;;;;;22.40;70.80;;;;;;5008590;28;92188;-48
2023/07/08 00:20:53;;;;;;;;;;;22.40;70.80;;;;;;5008707;28;92454;-47
2023/07/08 00:23:21;;;;;;;;;;;22.40;70.80;;;;;;5009931;28;93314;-46
2023/07/08 00:25:47;;;;;;;;;;;22.40;70.80;;;;;;5002720;28;92750;-45
2023/07/08 00:28:17;;;;;;;;;;;22.40;70.80;;;;;;5011614;28;93837;-48
2023/07/08 00:30:43;;;;;;;;;;;22.40;70.80;;;;;;5008420;28;92928;-47
2023/07/08 00:33:08;;;;;;;;;;;22.40;70.80;;;;;;5006900;28;92511;-45
2023/07/08 00:35:38;;;;;;;;;;;22.30;70.70;;;;;;5006008;28;94151;-46
2023/07/08 00:38:26;;;;;;;;;;;22.30;70.80;;;;;;5008311;28;92088;-47
2023/07/08 00:40:57;;;;;;;;;;;22.30;70.80;;;;;;5003198;28;92418;-47
2023/07/08 00:43:28;;;;;;;;;;;22.30;70.80;;;;;;5006527;28;93139;-46
2023/07/08 00:46:01;;;;;;;;;;;22.30;70.80;;;;;;5009061;28;92424;-45
2023/07/08 00:48:31;;;;;;;;;;;22.30;70.80;;;;;;5007332;28;92429;-46
2023/07/08 00:50:57;;;;;;;;;;;22.30;70.80;;;;;;5007008;28;93193;-47
2023/07/08 00:53:27;;;;;;;;;;;22.30;70.80;;;;;;5008149;28;93541;-46
2023/07/08 00:55:54;;;;;;;;;;;22.30;70.80;;;;;;5007685;28;93031;-46
2023/07/08 00:58:21;;;;;;;;;;;22.20;70.80;;;;;;5004819;28;92865;-47
2023/07/08 01:00:49;;;;;;;;;;;22.20;70.70;;;;;;5006897;28;93467;-45
2023/07/08 01:03:15;;;;;;;;;;;22.30;70.80;;;;;;5006127;28;92197;-47
2023/07/08 01:05:43;;;;;;;;;;;22.20;70.80;;;;;;5004947;28;92261;-47
2023/07/08 01:08:09;;;;;;;;;;;22.20;70.90;;;;;;5008485;28;92536;-46
2023/07/08 01:10:54;;;;;;;;;;;22.20;70.80;;;;;;5006481;28;94631;-47
2023/07/08 01:13:21;;;;;;;;;;;22.20;70.80;;;;;;5010287;28;92076;-47
2023/07/08 01:15:48;;;;;;;;;;;22.20;70.90;;;;;;5006651;28;93244;-46
2023/07/08 01:18:20;;;;;;;;;;;22.20;70.90;;;;;;5009924;28;91545;-46
2023/07/08 01:20:47;;;;;;;;;;;22.20;70.90;;;;;;5007055;28;92962;-47
2023/07/08 01:23:13;;;;;;;;;;;22.20;70.90;;;;;;5008341;28;94528;-46
2023/07/08 01:25:38;;;;;;;;;;;22.20;70.90;;;;;;5012901;28;93106;-48
2023/07/08 01:28:04;;;;;;;;;;;22.20;70.90;;;;;;5002099;28;92614;-47
2023/07/08 01:30:30;;;;;;;;;;;22.10;70.80;;;;;;5011395;28;93534;-49
2023/07/08 01:33:07;;;;;;;;;;;22.10;70.80;;;;;;5011709;28;92060;-46
2023/07/08 01:35:32;;;;;;;;;;;22.10;70.90;;;;;;5008823;28;92092;-45
2023/07/08 01:38:00;;;;;;;;;;;22.10;70.90;;;;;;5011433;28;92530;-48
2023/07/08 01:40:25;;;;;;;;;;;22.10;70.90;;;;;;5012693;28;92506;-46
2023/07/08 01:42:51;;;;;;;;;;;22.10;70.90;;;;;;5009751;28;93663;-45
2023/07/08 01:45:17;;;;;;;;;;;22.10;70.90;;;;;;5013057;28;92345;-48
2023/07/08 01:47:46;;;;;;;;;;;22.10;70.90;;;;;;5011187;28;92397;-45
2023/07/08 01:50:11;;;;;;;;;;;22.00;70.90;;;;;;5007600;28;94288;-46
2023/07/08 01:52:37;;;;;;;;;;;22.10;71.00;;;;;;5012822;28;93097;-46
2023/07/08 01:55:03;;;;;;;;;;;22.00;70.90;;;;;;5012626;28;92465;-45
2023/07/08 01:57:28;;;;;;;;;;;22.00;71.00;;;;;;5009414;28;92863;-45
2023/07/08 01:59:54;;;;;;;;;;;22.00;70.90;;;;;;5011073;28;92109;-46
2023/07/08 02:02:19;;;;;;;;;;;22.00;70.90;;;;;;5012072;28;93344;-46
2023/07/08 02:04:45;;;;;;;;;;;22.00;70.90;;;;;;5009197;28;92238;-45
2023/07/08 02:07:10;;;;;;;;;;;22.00;71.00;;;;;;5010660;28;92566;-47
2023/07/08 02:09:36;;;;;;;;;;;22.00;71.00;;;;;;5010949;28;93077;-46
2023/07/08 02:12:01;;;;;;;;;;;21.90;70.90;;;;;;5010021;28;92802;-46
2023/07/08 02:14:27;;;;;;;;;;;22.00;71.00;;;;;;5011060;28;93104;-46
2023/07/08 02:16:52;;;;;;;;;;;21.90;71.00;;;;;;5012014;28;92388;-46
2023/07/08 02:19:19;;;;;;;;;;;21.90;71.00;;;;;;5008900;28;92950;-48
2023/07/08 02:21:44;;;;;;;;;;;22.00;71.00;;;;;;5008669;28;94294;-49
2023/07/08 02:24:10;;;;;;;;;;;21.90;71.00;;;;;;5009559;28;92229;-48
2023/07/08 02:26:35;;;;;;;;;;;21.90;71.00;;;;;;5012209;28;94112;-49
2023/07/08 02:29:01;;;;;;;;;;;21.90;71.00;;;;;;5004954;28;93492;-49
2023/07/08 02:31:27;;;;;;;;;;;21.90;71.10;;;;;;5011401;28;91427;-51
2023/07/08 02:33:53;;;;;;;;;;;21.90;71.00;;;;;;5010487;28;92479;-47
2023/07/08 02:36:19;;;;;;;;;;;21.90;71.00;;;;;;5007642;28;93653;-48
2023/07/08 02:38:45;;;;;;;;;;;21.80;71.10;;;;;;5008210;28;93082;-45
2023/07/08 02:41:11;;;;;;;;;;;21.80;71.00;;;;;;5010575;28;93071;-45
2023/07/08 02:43:37;;;;;;;;;;;21.80;71.10;;;;;;5007569;28;92329;-46
2023/07/08 02:46:03;;;;;;;;;;;21.80;71.10;;;;;;5011666;28;93750;-46
2023/07/08 02:48:28;;;;;;;;;;;21.80;71.00;;;;;;5008252;28;93193;-45
2023/07/08 02:50:58;;;;;;;;;;;21.80;71.10;;;;;;5008518;28;92251;-46
2023/07/08 02:53:24;;;;;;;;;;;21.80;71.00;;;;;;5009568;28;92574;-45
2023/07/08 02:55:49;;;;;;;;;;;21.80;71.10;;;;;;5011874;28;92506;-45
2023/07/08 02:58:15;;;;;;;;;;;21.80;71.10;;;;;;5002994;28;92230;-46
2023/07/08 03:00:40;;;;;;;;;;;21.80;71.00;;;;;;5013763;28;92575;-47
2023/07/08 03:03:05;;;;;;;;;;;21.80;71.10;;;;;;5009770;28;94015;-46
2023/07/08 03:05:31;;;;;;;;;;;21.70;71.10;;;;;;5006415;28;93435;-47
2023/07/08 03:07:56;;;;;;;;;;;21.80;71.10;;;;;;5011321;28;93422;-47
2023/07/08 03:10:22;;;;;;;;;;;21.70;71.00;;;;;;5008796;28;92166;-48
2023/07/08 03:12:47;;;;;;;;;;;21.70;71.10;;;;;;5010805;28;92202;-48
2023/07/08 03:15:13;;;;;;;;;;;21.70;71.10;;;;;;5009133;28;93201;-45
2023/07/08 03:17:38;;;;;;;;;;;21.70;71.10;;;;;;5006482;28;92191;-46
2023/07/08 03:20:05;;;;;;;;;;;21.70;71.20;;;;;;5003343;28;92518;-46
2023/07/08 03:22:31;;;;;;;;;;;21.60;71.10;;;;;;5007412;28;93121;-46
2023/07/08 03:24:56;;;;;;;;;;;21.60;71.20;;;;;;5010052;28;92482;-45
2023/07/08 03:27:22;;;;;;;;;;;21.60;71.10;;;;;;5007823;28;94864;-45
2023/07/08 03:29:47;;;;;;;;;;;21.70;71.20;;;;;;5004619;28;92206;-45
2023/07/08 03:32:13;;;;;;;;;;;21.60;71.10;;;;;;4999849;28;92432;-46
2023/07/08 03:34:38;;;;;;;;;;;21.60;71.10;;;;;;5010056;28;93089;-45
2023/07/08 03:37:04;;;;;;;;;;;21.60;71.20;;;;;;5010811;28;92468;-46
2023/07/08 03:39:31;;;;;;;;;;;21.60;71.20;;;;;;5002098;28;93121;-46
2023/07/08 03:41:57;;;;;;;;;;;21.60;71.20;;;;;;5002651;28;94315;-46
2023/07/08 03:44:23;;;;;;;;;;;21.60;71.20;;;;;;5012289;28;91400;-45
2023/07/08 03:46:49;;;;;;;;;;;21.60;71.20;;;;;;5007034;28;93241;-45
2023/07/08 03:49:15;;;;;;;;;;;21.50;71.10;;;;;;5007589;28;92063;-46
2023/07/08 03:51:41;;;;;;;;;;;21.60;71.20;;;;;;5000972;28;93683;-46
2023/07/08 03:54:09;;;;;;;;;;;21.60;71.20;;;;;;5007585;28;93109;-47
2023/07/08 03:56:34;;;;;;;;;;;21.50;71.20;;;;;;5010073;28;91998;-47
2023/07/08 03:59:00;;;;;;;;;;;21.50;71.20;;;;;;5007866;28;92332;-48
2023/07/08 04:01:26;;;;;;;;;;;21.50;71.20;;;;;;5007645;28;93038;-46
2023/07/08 04:03:52;;;;;;;;;;;21.50;71.20;;;;;;5011051;28;92657;-47
2023/07/08 04:06:18;;;;;;;;;;;21.50;71.20;;;;;;5005162;28;93116;-46
2023/07/08 04:08:43;;;;;;;;;;;21.50;71.20;;;;;;4996842;28;91447;-45
2023/07/08 04:11:13;;;;;;;;;;;21.50;71.20;;;;;;5002378;28;92396;-45
2023/07/08 04:13:38;;;;;;;;;;;21.50;71.20;;;;;;5004086;28;93250;-47
2023/07/08 04:16:05;;;;;;;;;;;21.50;71.20;;;;;;5006925;28;93926;-46
2023/07/08 04:18:30;;;;;;;;;;;21.50;71.20;;;;;;5003067;28;96652;-45
2023/07/08 04:20:56;;;;;;;;;;;21.50;71.20;;;;;;5001428;28;93323;-46
2023/07/08 04:23:25;;;;;;;;;;;21.50;71.20;;;;;;5003771;28;92489;-45
2023/07/08 04:25:52;;;;;;;;;;;21.50;71.30;;;;;;5011655;28;92781;-48
2023/07/08 04:28:18;;;;;;;;;;;21.40;71.20;;;;;;5000619;28;92330;-45
2023/07/08 04:30:43;;;;;;;;;;;21.40;71.20;;;;;;5002882;28;92412;-48
2023/07/08 04:33:13;;;;;;;;;;;21.50;71.20;;;;;;5010290;28;92534;-45
2023/07/08 04:35:39;;;;;;;;;;;21.40;71.20;;;;;;5003299;28;92171;-47
2023/07/08 04:38:09;;;;;;;;;;;21.50;71.10;;;;;;5001968;28;93946;-44
2023/07/08 04:40:39;;;;;;;;;;;21.40;71.10;;;;;;5000601;28;95445;-45
2023/07/08 04:43:05;;;;;;;;;;;21.40;71.10;;;;;;5007447;28;92339;-46
2023/07/08 04:45:31;;;;;;;;;;;21.40;71.10;;;;;;5001592;28;92162;-47
2023/07/08 04:47:58;;;;;;;;;;;21.40;71.10;;;;;;5009651;28;94071;-45
2023/07/08 04:50:24;;;;;;;;;;;21.40;71.20;;;;;;5003580;28;92495;-46
2023/07/08 04:52:49;;;;;;;;;;;21.40;71.10;;;;;;5005006;28;94701;-47
2023/07/08 04:55:15;;;;;;;;;;;21.40;71.20;;;;;;4998857;28;92645;-45
2023/07/08 04:57:41;;;;;;;;;;;21.40;71.20;;;;;;4992110;28;92766;-46
2023/07/08 05:00:08;;;;;;;;;;;21.40;71.10;;;;;;5006120;28;93213;-45
2023/07/08 05:02:34;;;;;;;;;;;21.40;71.10;;;;;;5008529;28;92172;-46
2023/07/08 05:04:59;;;;;;;;;;;21.40;71.10;;;;;;4997243;28;94872;-47
2023/07/08 05:07:25;;;;;;;;;;;21.50;71.00;;;;;;4999016;28;93926;-46
2023/07/08 05:09:51;;;;;;;;;;;21.40;71.00;;;;;;5012999;28;92191;-47
2023/07/08 05:12:16;;;;;;;;;;;21.50;71.00;;;;;;5002979;28;93089;-48
2023/07/08 05:14:42;;;;;;;;;;;21.50;71.00;;;;;;5002814;28;92334;-46
2023/07/08 05:17:08;;;;;;;;;;;21.50;70.90;;;;;;4998488;28;93937;-45
2023/07/08 05:19:34;;;;;;;;;;;21.50;70.90;;;;;;5009238;28;93176;-48
2023/07/08 05:21:59;;;;;;;;;;;21.50;70.90;;;;;;5002812;28;92133;-45
2023/07/08 05:24:25;;;;;;;;;;;21.50;71.00;;;;;;4996858;28;93178;-46
2023/07/08 05:26:50;;;;;;;;;;;21.50;71.00;;;;;;5000472;28;93160;-45
2023/07/08 05:29:16;;;;;;;;;;;21.50;71.00;;;;;;5009267;28;93129;-45
2023/07/08 05:31:41;;;;;;;;;;;21.50;71.00;;;;;;5010514;28;93345;-46
2023/07/08 05:34:07;;;;;;;;;;;21.50;71.00;;;;;;5002686;28;92501;-46
2023/07/08 05:36:32;;;;;;;;;;;21.50;71.00;;;;;;4998599;28;93845;-47
2023/07/08 05:38:58;;;;;;;;;;;21.50;71.00;;;;;;5008312;28;93182;-47
2023/07/08 05:41:23;;;;;;;;;;;21.50;71.10;;;;;;5006390;28;92450;-45
2023/07/08 05:43:49;;;;;;;;;;;21.40;71.10;;;;;;5005661;28;93891;-45
2023/07/08 05:46:14;;;;;;;;;;;21.40;71.20;;;;;;4999307;28;92633;-47
2023/07/08 05:48:40;;;;;;;;;;;21.40;71.20;;;;;;5008056;28;92159;-47
2023/07/08 05:51:05;;;;;;;;;;;21.40;71.20;;;;;;5008485;28;93778;-48
2023/07/08 05:53:31;;;;;;;;;;;21.40;71.20;;;;;;4995061;28;93187;-47
2023/07/08 05:55:57;;;;;;;;;;;21.40;71.30;;;;;;5001347;28;93461;-47
2023/07/08 05:58:22;;;;;;;;;;;21.40;71.30;;;;;;5007210;28;94336;-46
2023/07/08 06:00:54;;;;;;;;;;;21.40;71.30;;;;;;5004183;28;92353;-45
2023/07/08 06:03:20;;;;;;;;;;;21.40;71.30;;;;;;4997053;28;93820;-46
2023/07/08 06:05:45;;;;;;;;;;;21.40;71.30;;;;;;5001003;28;93121;-46
2023/07/08 06:08:11;;;;;;;;;;;21.30;71.30;;;;;;5006969;28;92332;-48
2023/07/08 06:10:41;;;;;;;;;;;21.30;71.30;;;;;;5003008;28;92464;-46
2023/07/08 06:13:07;;;;;;;;;;;21.30;71.30;;;;;;5000562;28;94796;-46
2023/07/08 06:15:32;;;;;;;;;;;21.40;71.40;;;;;;5007127;28;92197;-49
2023/07/08 06:18:00;;;;;;;;;;;21.40;71.30;;;;;;5008480;28;94102;-46
2023/07/08 06:20:26;;;;;;;;;;;21.40;71.40;;;;;;5000322;28;93222;-46
2023/07/08 06:22:51;;;;;;;;;;;21.30;71.90;;;;;;4995303;28;93906;-46
2023/07/08 06:25:17;;;;;;;;;;;21.40;71.40;;;;;;5009858;28;93214;-48
2023/07/08 06:27:42;;;;;;;;;;;21.30;71.30;;;;;;5011073;28;92332;-47
2023/07/08 06:30:08;;;;;;;;;;;21.30;71.90;;;;;;4997628;28;92461;-46
2023/07/08 06:32:33;;;;;;;;;;;21.30;71.40;;;;;;5002362;28;94697;-47
2023/07/08 06:34:59;;;;;;;;;;;21.30;71.40;;;;;;5013776;28;91902;-49
2023/07/08 06:37:24;;;;;;;;;;;21.30;71.40;;;;;;5002341;28;93284;-48
2023/07/08 06:39:50;;;;;;;;;;;21.30;71.40;;;;;;5001489;28;92880;-50
2023/07/08 06:42:15;;;;;;;;;;;21.30;71.30;;;;;;5001497;28;93432;-51
2023/07/08 06:44:45;;;;;;;;;;;21.30;71.40;;;;;;5007354;28;93034;-50
2023/07/08 06:47:10;;;;;;;;;;;21.30;71.40;;;;;;5010070;28;92181;-48
2023/07/08 06:49:36;;;;;;;;;;;21.30;71.40;;;;;;4999359;28;93257;-49
2023/07/08 06:52:01;;;;;;;;;;;21.30;71.40;;;;;;5005956;28;93229;-46
2023/07/08 06:54:27;;;;;;;;;;;21.30;71.40;;;;;;5007290;28;92417;-47
2023/07/08 06:56:53;;;;;;;;;;;21.30;71.40;;;;;;5011699;28;92468;-45
2023/07/08 06:59:18;;;;;;;;;;;21.30;71.40;;;;;;5006034;28;92572;-46
2023/07/08 07:01:44;;;;;;;;;;;21.30;71.40;;;;;;5001708;28;92608;-48
2023/07/08 07:04:09;;;;;;;;;;;21.30;71.40;;;;;;5009203;28;92695;-46
2023/07/08 07:06:35;;;;;;;;;;;21.30;71.40;;;;;;5005101;28;94205;-45
2023/07/08 07:09:00;;;;;;;;;;;21.30;71.40;;;;;;5006224;28;93394;-49
2023/07/08 07:11:26;;;;;;;;;;;21.30;71.40;;;;;;5004082;28;93173;-46
2023/07/08 07:13:51;;;;;;;;;;;21.30;71.40;;;;;;5007339;28;92099;-48
2023/07/08 07:16:17;;;;;;;;;;;21.30;71.40;;;;;;5006204;28;92417;-46
2023/07/08 07:18:42;;;;;;;;;;;21.20;71.30;;;;;;5005821;28;93155;-46
2023/07/08 07:21:08;;;;;;;;;;;21.30;72.00;;;;;;5004371;28;93633;-45
2023/07/08 07:23:33;;;;;;;;;;;21.30;71.40;;;;;;5007254;28;92503;-46
2023/07/08 07:25:59;;;;;;;;;;;21.30;71.30;;;;;;5002800;28;92356;-45
2023/07/08 07:28:24;;;;;;;;;;;21.20;71.30;;;;;;4996873;28;92286;-46
2023/07/08 07:30:57;;;;;;;;;;;21.30;71.90;;;;;;4999973;28;94172;-46
2023/07/08 07:33:23;;;;;;;;;;;21.30;71.30;;;;;;5008403;28;92164;-45
2023/07/08 07:35:48;;;;;;;;;;;21.30;71.20;;;;;;5009060;28;93230;-45
2023/07/08 07:38:14;;;;;;;;;;;21.30;71.10;;;;;;5005528;28;93845;-47
2023/07/08 07:40:40;;;;;;;;;;;21.30;71.10;;;;;;5008050;28;92124;-45
2023/07/08 07:43:06;;;;;;;;;;;21.30;71.20;;;;;;5006896;28;94274;-45
2023/07/08 07:45:31;;;;;;;;;;;21.30;71.30;;;;;;5004208;28;92796;-45
2023/07/08 07:47:56;;;;;;;;;;;21.30;71.20;;;;;;5005709;28;93345;-45
2023/07/08 07:50:22;;;;;;;;;;;21.30;71.10;;;;;;5007133;28;93752;-47
2023/07/08 07:52:47;;;;;;;;;;;21.40;71.10;;;;;;5007699;28;92179;-46
2023/07/08 07:55:13;;;;;;;;;;;21.40;71.10;;;;;;5005661;28;93097;-47
2023/07/08 07:57:39;;;;;;;;;;;21.40;71.10;;;;;;4996334;28;93837;-45
2023/07/08 08:00:05;;;;;;;;;;;21.40;71.00;;;;;;5011719;28;92212;-46
2023/07/08 08:02:30;;;;;;;;;;;21.40;71.00;;;;;;5008101;28;93241;-45
2023/07/08 08:04:56;;;;;;;;;;;21.40;70.90;;;;;;5004870;28;92587;-46
2023/07/08 08:07:21;;;;;;;;;;;21.40;71.00;;;;;;4990676;28;93776;-45
2023/07/08 08:09:47;;;;;;;;;;;21.40;70.90;;;;;;5004589;28;93184;-46
2023/07/08 08:12:12;;;;;;;;;;;21.30;70.90;;;;;;5008876;28;91535;-45
2023/07/08 08:14:38;;;;;;;;;;;21.40;70.90;;;;;;5001292;28;92124;-47
2023/07/08 08:17:04;;;;;;;;;;;21.40;70.90;;;;;;4997785;28;93200;-46
2023/07/08 08:19:30;;;;;;;;;;;21.40;70.80;;;;;;5005385;28;93203;-45
2023/07/08 08:21:55;;;;;;;;;;;21.40;70.80;;;;;;5010101;28;94953;-45
2023/07/08 08:24:21;;;;;;;;;;;21.40;70.80;;;;;;5003514;28;92420;-45
2023/07/08 08:26:47;;;;;;;;;;;21.40;70.70;;;;;;4997356;28;92879;-47
2023/07/08 08:29:12;;;;;;;;;;;21.40;70.70;;;;;;5008062;28;93121;-45
2023/07/08 08:31:38;;;;;;;;;;;21.40;70.80;;;;;;5006958;28;92293;-47
2023/07/08 08:34:03;;;;;;;;;;;21.40;70.80;;;;;;5006103;28;93594;-45
2023/07/08 08:36:29;;;;;;;;;;;21.40;70.90;;;;;;5006969;28;93791;-48
2023/07/08 08:38:54;;;;;;;;;;;21.40;70.80;;;;;;5009452;28;92198;-46
2023/07/08 08:41:25;;;;;;;;;;;21.40;70.70;;;;;;5005534;28;92710;-47
2023/07/08 08:43:52;;;;;;;;;;;21.40;70.80;;;;;;5010002;28;94185;-46
2023/07/08 08:46:18;;;;;;;;;;;21.40;70.90;;;;;;5008184;28;93318;-46
2023/07/08 08:48:54;;;;;;;;;;;21.40;70.90;;;;;;5006613;28;93031;-46
2023/07/08 08:51:19;;;;;;;;;;;21.40;70.80;;;;;;5002365;28;92146;-48
2023/07/08 08:53:45;;;;;;;;;;;21.40;70.90;;;;;;5007241;28;92460;-46
2023/07/08 08:56:17;;;;;;;;;;;21.40;70.90;;;;;;5005118;28;92682;-46
2023/07/08 08:58:43;;;;;;;;;;;21.40;70.90;;;;;;5004193;28;92326;-47
2023/07/08 09:01:13;;;;;;;;;;;21.40;70.90;;;;;;5008922;28;92335;-45
2023/07/08 09:03:41;;;;;;;;;;;21.40;70.90;;;;;;5007658;28;93358;-46
2023/07/08 09:06:11;;;;;;;;;;;21.40;71.00;;;;;;5009322;28;92179;-47
2023/07/08 09:08:37;;;;;;;;;;;21.40;69.90;;;;;;5005416;28;95666;-45
2023/07/08 09:11:22;;;;;;;;;;;21.50;68.80;;;;;;5003199;28;92216;-46
2023/07/08 09:13:48;;;;;;;;;;;21.50;68.70;;;;;;5007845;28;93858;-46
2023/07/08 09:16:34;;;;;;;;;;;21.50;69.00;;;;;;5006300;28;92994;-48
2023/07/08 09:19:03;;;;;;;;;;;21.50;69.20;;;;;;5006279;28;93027;-47
2023/07/08 09:21:36;;;;;;;;;;;21.50;69.40;;;;;;5006008;28;92790;-47
2023/07/08 09:24:04;;;;;;;;;;;21.40;69.40;;;;;;5004089;28;95755;-49
2023/07/08 09:26:30;;;;;;;;;;;21.40;69.70;;;;;;5009599;28;91830;-46
2023/07/08 09:28:56;;;;;;;;;;;21.40;69.90;;;;;;5009908;28;92602;-50
2023/07/08 09:31:25;;;;;;;;;;;21.40;69.90;;;;;;5008497;28;93087;-48
2023/07/08 09:34:04;;;;;;;;;;;21.40;69.90;;;;;;5008819;28;93008;-47
2023/07/08 09:36:29;;;;;;;;;;;21.50;69.90;;;;;;5004981;28;93080;-48
2023/07/08 09:38:55;;;;;;;;;;;21.50;69.80;;;;;;5006431;28;92167;-46
2023/07/08 09:41:33;;;;;;;;;;;21.50;69.80;;;;;;5007905;28;93118;-46
2023/07/08 09:44:26;;;;;;;;;;;21.50;69.90;;;;;;5008829;28;93074;-46
2023/07/08 09:46:55;;;;;;;;;;;21.50;69.70;;;;;;5009419;28;92553;-47
2023/07/08 09:49:36;;;;;;;;;;;21.50;69.60;;;;;;5006353;28;92946;-47
2023/07/08 09:52:02;;;;;;;;;;;21.50;69.60;;;;;;5012016;28;92330;-46
2023/07/08 09:54:27;;;;;;;;;;;21.50;69.80;;;;;;5010328;28;92366;-46
2023/07/08 09:57:11;;;;;;;;;;;21.60;69.70;;;;;;5010220;28;93005;-47
2023/07/08 09:59:47;;;;;;;;;;;21.60;69.70;;;;;;5006226;28;93178;-46
2023/07/08 10:02:19;;;;;;;;;;;21.60;69.60;;;;;;5009143;28;94897;-48
2023/07/08 10:04:45;;;;;;;;;;;21.60;69.70;;;;;;5006460;28;93213;-46
2023/07/08 10:07:16;;;;;;;;;;;21.60;69.70;;;;;;5009169;28;92149;-48
2023/07/08 10:09:41;;;;;;;;;;;21.60;69.70;;;;;;5007494;28;92501;-47
2023/07/08 10:12:11;;;;;;;;;;;21.60;69.80;;;;;;5014430;28;93284;-47
2023/07/08 10:14:38;;;;;;;;;;;21.60;69.80;;;;;;5010537;28;92384;-47
2023/07/08 10:17:04;;;;;;;;;;;21.60;69.60;;;;;;5009893;28;92463;-46
2023/07/08 10:19:30;;;;;;;;;;;21.60;69.70;;;;;;5012434;28;92371;-51
2023/07/08 10:22:04;;;;;;;;;;;21.60;69.70;;;;;;5007818;28;92423;-47
2023/07/08 10:24:29;;;;;;;;;;;21.60;69.80;;;;;;5006911;28;93979;-48
2023/07/08 10:27:04;;;;;;;;;;;21.60;69.80;;;;;;5011913;28;92272;-46
2023/07/08 10:29:34;;;;;;;;;;;21.60;69.70;;;;;;5010892;28;94048;-46
2023/07/08 10:32:16;;;;;;;;;;;21.60;69.80;;;;;;5007907;28;93346;-46
2023/07/08 10:34:47;;;;;;;;;;;21.60;69.90;;;;;;5012843;28;92119;-47
2023/07/08 10:37:31;;;;;;;;;;;21.60;69.60;;;;;;5004643;28;93071;-47
2023/07/08 10:40:08;;;;;;;;;;;21.60;69.70;;;;;;5006584;28;92355;-51
2023/07/08 10:42:33;;;;;;;;;;;21.60;69.60;;;;;;5009761;28;92462;-49
2023/07/08 10:45:06;;;;;;;;;;;21.60;69.60;;;;;;5011233;28;93418;-51
2023/07/08 10:47:41;;;;;;;;;;;21.60;69.60;;;;;;5006951;28;92173;-49
2023/07/08 10:50:26;;;;;;;;;;;21.60;69.60;;;;;;5008267;28;93882;-51
2023/07/08 10:53:10;;;;;;;;;;;21.70;69.60;;;;;;5008667;28;93154;-51
2023/07/08 10:55:43;;;;;;;;;;;21.70;69.60;;;;;;5005514;28;92491;-48
2023/07/08 10:58:13;;;;;;;;;;;21.70;69.60;;;;;;5008227;28;92562;-51
2023/07/08 11:00:45;;;;;;;;;;;21.70;69.60;;;;;;5010196;28;92175;-51
2023/07/08 11:03:19;;;;;;;;;;;21.70;69.60;;;;;;5011589;28;92412;-52
2023/07/08 11:05:56;;;;;;;;;;;21.60;69.50;;;;;;5009755;28;93086;-52
2023/07/08 11:08:25;;;;;;;;;;;21.70;69.60;;;;;;5004672;28;92186;-47
2023/07/08 11:10:56;;;;;;;;;;;21.70;69.50;;;;;;5009399;28;92108;-47
2023/07/08 11:13:23;;;;;;;;;;;21.70;69.60;;;;;;5007846;28;93059;-47
2023/07/08 11:15:57;;;;;;;;;;;21.70;69.60;;;;;;5004111;28;93148;-47
2023/07/08 11:18:38;;;;;;;;;;;21.70;69.70;;;;;;5009189;28;93271;-47
2023/07/08 11:21:11;;;;;;;;;;;21.70;69.60;;;;;;5009020;28;93697;-46
2023/07/08 11:23:37;;;;;;;;;;;21.70;69.50;;;;;;5003122;28;92533;-48
2023/07/08 11:26:18;;;;;;;;;;;21.80;69.60;;;;;;5007432;28;94747;-46
2023/07/08 11:28:43;;;;;;;;;;;21.80;69.60;;;;;;5008487;28;92168;-49
2023/07/08 11:31:10;;;;;;;;;;;21.80;69.60;;;;;;5011202;28;92627;-50
2023/07/08 11:33:37;;;;;;;;;;;21.70;69.60;;;;;;5008961;28;92349;-46
2023/07/08 11:36:03;;;;;;;;;;;21.80;69.60;;;;;;5009175;28;92134;-46
2023/07/08 11:38:31;;;;;;;;;;;21.80;69.60;;;;;;5010840;28;92373;-46
2023/07/08 11:41:02;;;;;;;;;;;21.80;69.50;;;;;;5005159;28;95433;-48
2023/07/08 11:43:33;;;;;;;;;;;21.80;69.50;;;;;;5011397;28;92655;-48
2023/07/08 11:46:03;;;;;;;;;;;21.80;69.50;;;;;;5010348;28;92410;-48
2023/07/08 11:48:31;;;;;;;;;;;21.80;69.40;;;;;;5009085;28;92165;-47
2023/07/08 11:50:57;;;;;;;;;;;21.80;69.50;;;;;;5008176;28;93828;-46
2023/07/08 11:53:29;;;;;;;;;;;21.80;69.50;;;;;;5003650;28;94491;-47
2023/07/08 11:55:57;;;;;;;;;;;21.90;69.40;;;;;;5008068;28;92170;-47
2023/07/08 11:58:24;;;;;;;;;;;21.90;69.30;;;;;;5010096;28;92768;-48
2023/07/08 12:00:59;;;;;;;;;;;21.90;69.40;;;;;;5006726;28;93237;-47
2023/07/08 12:03:30;;;;;;;;;;;21.90;69.20;;;;;;5009030;28;92175;-46
2023/07/08 12:05:56;;;;;;;;;;;21.90;69.30;;;;;;5011609;28;93726;-47
2023/07/08 12:08:32;;;;;;;;;;;21.90;69.30;;;;;;5005569;28;92183;-47
2023/07/08 12:10:58;;;;;;;;;;;21.90;69.20;;;;;;5007738;28;92472;-46
2023/07/08 12:13:24;;;;;;;;;;;21.90;69.20;;;;;;5009818;28;93066;-46
2023/07/08 12:15:50;;;;;;;;;;;22.00;69.20;;;;;;5007885;28;92325;-47
2023/07/08 12:18:16;;;;;;;;;;;22.00;69.20;;;;;;5009130;28;92363;-46
2023/07/08 12:20:43;;;;;;;;;;;22.00;69.30;;;;;;5008996;28;92207;-48
2023/07/08 12:23:12;;;;;;;;;;;22.00;69.20;;;;;;5008811;28;91469;-46
2023/07/08 12:25:38;;;;;;;;;;;22.00;69.20;;;;;;5009824;28;92975;-46
2023/07/08 12:28:03;;;;;;;;;;;22.00;69.20;;;;;;5008731;28;92037;-47
2023/07/08 12:30:31;;;;;;;;;;;22.00;69.30;;;;;;5009338;28;93090;-47
2023/07/08 12:32:59;;;;;;;;;;;22.00;69.80;;;;;;5006067;28;93093;-48
2023/07/08 12:35:27;;;;;;;;;;;22.00;69.20;;;;;;5009107;28;92128;-47
2023/07/08 12:37:54;;;;;;;;;;;22.10;69.20;;;;;;5006532;28;92503;-46
2023/07/08 12:40:23;;;;;;;;;;;22.10;69.30;;;;;;5006406;28;93334;-48
2023/07/08 12:42:49;;;;;;;;;;;22.10;69.10;;;;;;5009885;28;92592;-47
2023/07/08 12:45:16;;;;;;;;;;;22.10;69.40;;;;;;5008351;28;93968;-46
2023/07/08 12:47:43;;;;;;;;;;;22.10;69.20;;;;;;5010437;28;92407;-46
2023/07/08 12:50:09;;;;;;;;;;;22.10;69.30;;;;;;5009949;28;92074;-47
2023/07/08 12:52:35;;;;;;;;;;;22.10;69.30;;;;;;5005109;28;96737;-47
2023/07/08 12:55:00;;;;;;;;;;;22.10;69.20;;;;;;5002093;28;93136;-46
2023/07/08 12:57:26;;;;;;;;;;;22.10;69.10;;;;;;5007787;28;93697;-47
2023/07/08 12:59:51;;;;;;;;;;;22.20;69.20;;;;;;5009622;28;93125;-48
2023/07/08 13:02:19;;;;;;;;;;;22.20;69.10;;;;;;5007102;28;92316;-48
2023/07/08 13:04:46;;;;;;;;;;;22.20;69.10;;;;;;5008650;28;92780;-46
2023/07/08 13:07:23;;;;;;;;;;;22.20;69.10;;;;;;5007685;28;93104;-49
2023/07/08 13:09:50;;;;;;;;;;;22.20;69.70;;;;;;5005116;28;92175;-48
2023/07/08 13:12:17;;;;;;;;;;;22.20;69.10;;;;;;5006574;28;92388;-50
2023/07/08 13:14:44;;;;;;;;;;;22.20;68.90;;;;;;5009008;28;92479;-48
2023/07/08 13:17:12;;;;;;;;;;;22.30;68.90;;;;;;5002558;28;93583;-47
2023/07/08 13:19:38;;;;;;;;;;;22.20;68.80;;;;;;5009101;28;95648;-46
2023/07/08 13:22:04;;;;;;;;;;;22.30;68.90;;;;;;5012368;28;92126;-46
2023/07/08 13:24:31;;;;;;;;;;;22.30;69.00;;;;;;5008910;28;93999;-49
2023/07/08 13:26:57;;;;;;;;;;;22.40;69.10;;;;;;5005490;28;93306;-46
2023/07/08 13:29:24;;;;;;;;;;;22.30;68.80;;;;;;5011724;28;92987;-49
2023/07/08 13:31:53;;;;;;;;;;;22.40;68.80;;;;;;5014417;28;93667;-47
2023/07/08 13:34:19;;;;;;;;;;;22.40;68.80;;;;;;5009744;28;92115;-49
2023/07/08 13:36:46;;;;;;;;;;;22.40;68.70;;;;;;5012008;28;94309;-47
2023/07/08 13:39:16;;;;;;;;;;;22.40;68.70;;;;;;5009016;28;93148;-48
2023/07/08 13:41:42;;;;;;;;;;;22.40;68.70;;;;;;5008254;28;92154;-48
2023/07/08 13:44:08;;;;;;;;;;;22.50;68.70;;;;;;5005239;28;93108;-47
2023/07/08 13:46:38;;;;;;;;;;;22.50;68.50;;;;;;5011133;28;93205;-47
2023/07/08 13:49:30;;;;;;;;;;;22.50;68.50;;;;;;5011798;28;92197;-48
2023/07/08 13:52:06;;;;;;;;;;;22.50;68.40;;;;;;5011855;28;92531;-50
2023/07/08 13:54:33;;;;;;;;;;;22.60;68.20;;;;;;5007525;28;93158;-46
2023/07/08 13:57:00;;;;;;;;;;;22.60;68.10;;;;;;5009176;28;92938;-47
2023/07/08 13:59:26;;;;;;;;;;;22.60;68.10;;;;;;5012421;28;93226;-47
2023/07/08 14:01:53;;;;;;;;;;;22.70;68.20;;;;;;5010613;28;91449;-47
2023/07/08 14:04:21;;;;;;;;;;;22.60;68.80;;;;;;5011316;28;92165;-50
2023/07/08 14:06:47;;;;;;;;;;;22.60;70.00;;;;;;5011693;28;93263;-45
2023/07/08 14:09:17;;;;;;;;;;;22.60;71.10;;;;;;5007587;28;93203;-46
2023/07/08 14:11:43;;;;;;;;;;;22.60;70.40;;;;;;5007573;28;94605;-49
2023/07/08 14:14:09;;;;;;;;;;;22.50;70.00;;;;;;5011030;28;92733;-46
2023/07/08 14:16:37;;;;;;;;;;;22.50;70.00;;;;;;5012114;28;92051;-47
2023/07/08 14:19:05;;;;;;;;;;;22.50;70.00;;;;;;5005774;28;94561;-47